Impacts METAR Board
IDs:

KERV - Kerrville Muni, TX, US

Updated at: 0500 UTC 18 Jan 2022
Potential Impact None Slight Moderate High
Time 17/17Z 17/18Z 17/19Z 17/20Z 17/21Z 17/22Z 17/23Z 18/00Z 18/01Z 18/02Z 18/03Z 18/04Z 18/05Z
Temp56 64 66 68 69 69 67 60 53 45 39 40 45
Dewpt15 18 16 16 15 13 13 16 19 19 20 21 22
Altim30.17 30.15 30.12 30.08 30.06 30.05 30.05 30.05 30.06 30.07 30.06 30.07 30.06
VIS10 10 10 10 10 10 10 10 10 10 10 10 10
CIG-- -- -- -- -- -- -- -- -- -- -- -- --
CoverCLRCLRCLRCLRCLRCLRCLRCLRCLRCLRCLRCLRCLR
FltCatVFRVFRVFRVFRVFRVFRVFRVFRVFRVFRVFRVFRVFR
WX--------------------------
WDir1302201601701801601901700000140
WSpd4 4 7 9 11 12 10 5 0 0 0 0 8
WGst-- -- -- 14 -- 15 -- -- -- -- -- -- --
Raw hourly METARs
KERV 171655Z AUTO 13004KT 10SM CLR 13/M09 A3017 RMK AO2 T01331095
KERV 171755Z AUTO 22004KT 10SM CLR 18/M08 A3015 RMK AO2 T01751079 10176 21046
KERV 171855Z AUTO 16007KT 10SM CLR 19/M09 A3012 RMK AO2 T01911089
KERV 171955Z AUTO 17009G14KT 140V210 10SM CLR 20/M09 A3008 RMK AO2 T02001090
KERV 172055Z AUTO 18011KT 150V210 10SM CLR 21/M09 A3006 RMK AO2 T02071095
KERV 172155Z AUTO 16012G15KT 10SM CLR 20/M11 A3005 RMK AO2 T02031106
KERV 172255Z AUTO 19010KT 10SM CLR 19/M10 A3005 RMK AO2 T01921105
KERV 172355Z AUTO 17005KT 10SM CLR 15/M09 A3005 RMK AO2 T01541087 10210 20154
KERV 180055Z AUTO 00000KT 10SM CLR 11/M07 A3006 RMK AO2 T01141075
KERV 180155Z AUTO 00000KT 10SM CLR 07/M07 A3007 RMK AO2 T00731070
KERV 180255Z AUTO 00000KT 10SM CLR 04/M06 A3006 RMK AO2 T00401065
KERV 180355Z AUTO 00000KT 10SM CLR 05/M06 A3007 RMK AO2 T00471062
KERV 180455Z AUTO 14008KT 10SM CLR 07/M05 A3006 RMK AO2 T00731053